sensor_id;sensor_type;location;lat;lon;timestamp;pressure;altitude;pressure_sealevel;temperature;humidity
41246;BME280;53880;47.526;18.986;2024-02-23T00:01:20;98365.66;;;20.76;44.93
41246;BME280;53880;47.526;18.986;2024-02-23T00:03:35;98369.75;;;20.72;45.13
41246;BME280;53880;47.526;18.986;2024-02-23T00:05:58;98370.59;;;20.72;45.16
41246;BME280;53880;47.526;18.986;2024-02-23T00:08:18;98363.59;;;20.71;45.13
41246;BME280;53880;47.526;18.986;2024-02-23T00:10:34;98360.28;;;20.69;45.13
41246;BME280;53880;47.526;18.986;2024-02-23T00:12:52;98374.47;;;20.63;45.02
41246;BME280;53880;47.526;18.986;2024-02-23T00:15:15;98363.75;;;20.63;45.42
41246;BME280;53880;47.526;18.986;2024-02-23T00:17:36;98374.03;;;20.66;45.43
41246;BME280;53880;47.526;18.986;2024-02-23T00:19:54;98377.13;;;20.63;45.47
41246;BME280;53880;47.526;18.986;2024-02-23T00:22:14;98376.47;;;20.55;45.42
41246;BME280;53880;47.526;18.986;2024-02-23T00:24:32;98369.28;;;20.55;45.52
41246;BME280;53880;47.526;18.986;2024-02-23T00:26:52;98369.03;;;20.50;45.90
41246;BME280;53880;47.526;18.986;2024-02-23T00:29:10;98365.53;;;20.49;45.84
41246;BME280;53880;47.526;18.986;2024-02-23T00:31:25;98356.88;;;20.47;45.75
41246;BME280;53880;47.526;18.986;2024-02-23T00:33:43;98364.28;;;20.45;45.94
41246;BME280;53880;47.526;18.986;2024-02-23T00:36:02;98356.25;;;20.45;46.06
41246;BME280;53880;47.526;18.986;2024-02-23T00:38:18;98365.09;;;20.46;45.76
41246;BME280;53880;47.526;18.986;2024-02-23T00:40:37;98360.59;;;20.46;45.95
41246;BME280;53880;47.526;18.986;2024-02-23T00:42:55;98365.28;;;20.44;46.00
41246;BME280;53880;47.526;18.986;2024-02-23T00:45:15;98349.44;;;20.43;45.78
41246;BME280;53880;47.526;18.986;2024-02-23T00:47:33;98353.97;;;20.42;45.92
41246;BME280;53880;47.526;18.986;2024-02-23T00:49:52;98354.38;;;20.39;46.13
41246;BME280;53880;47.526;18.986;2024-02-23T00:52:07;98359.28;;;20.36;46.13
41246;BME280;53880;47.526;18.986;2024-02-23T00:54:24;98362.97;;;20.35;46.04
41246;BME280;53880;47.526;18.986;2024-02-23T00:56:42;98353.72;;;20.31;46.21
41246;BME280;53880;47.526;18.986;2024-02-23T00:58:57;98356.13;;;20.26;46.24
41246;BME280;53880;47.526;18.986;2024-02-23T01:01:14;98353.03;;;20.22;46.24
41246;BME280;53880;47.526;18.986;2024-02-23T01:03:31;98346.19;;;20.20;46.38
41246;BME280;53880;47.526;18.986;2024-02-23T01:05:55;98340.22;;;20.18;46.21
41246;BME280;53880;47.526;18.986;2024-02-23T01:08:12;98343.09;;;20.16;46.28
41246;BME280;53880;47.526;18.986;2024-02-23T01:10:32;98337.09;;;20.14;46.43
41246;BME280;53880;47.526;18.986;2024-02-23T01:12:47;98336.47;;;20.12;46.51
41246;BME280;53880;47.526;18.986;2024-02-23T01:15:07;98330.31;;;20.12;46.50
41246;BME280;53880;47.526;18.986;2024-02-23T01:17:30;98337.50;;;20.11;46.52
41246;BME280;53880;47.526;18.986;2024-02-23T01:19:50;98337.06;;;20.08;46.61
41246;BME280;53880;47.526;18.986;2024-02-23T01:22:12;98329.03;;;20.08;46.45
41246;BME280;53880;47.526;18.986;2024-02-23T01:24:29;98335.78;;;20.04;46.67
41246;BME280;53880;47.526;18.986;2024-02-23T01:26:49;98341.13;;;20.04;46.67
41246;BME280;53880;47.526;18.986;2024-02-23T01:29:07;98323.66;;;20.01;46.67
41246;BME280;53880;47.526;18.986;2024-02-23T01:31:27;98329.00;;;20.01;46.74
41246;BME280;53880;47.526;18.986;2024-02-23T01:33:44;98328.19;;;20.01;46.61
41246;BME280;53880;47.526;18.986;2024-02-23T01:36:02;98314.19;;;19.99;46.58
41246;BME280;53880;47.526;18.986;2024-02-23T01:38:20;98316.88;;;19.99;46.44
41246;BME280;53880;47.526;18.986;2024-02-23T01:40:38;98320.53;;;19.98;46.60
41246;BME280;53880;47.526;18.986;2024-02-23T01:45:22;98313.94;;;19.94;46.57
41246;BME280;53880;47.526;18.986;2024-02-23T01:47:40;98319.88;;;19.89;46.78
41246;BME280;53880;47.526;18.986;2024-02-23T01:49:59;98310.38;;;19.87;46.68
41246;BME280;53880;47.526;18.986;2024-02-23T01:52:15;98304.41;;;19.85;46.95
41246;BME280;53880;47.526;18.986;2024-02-23T01:54:36;98317.59;;;19.86;46.88
41246;BME280;53880;47.526;18.986;2024-02-23T01:56:52;98309.13;;;19.83;46.77
41246;BME280;53880;47.526;18.986;2024-02-23T01:59:12;98320.66;;;19.83;46.83
41246;BME280;53880;47.526;18.986;2024-02-23T02:01:30;98309.34;;;19.81;46.90
41246;BME280;53880;47.526;18.986;2024-02-23T02:03:48;98313.63;;;19.82;47.01
41246;BME280;53880;47.526;18.986;2024-02-23T02:06:09;98307.88;;;19.78;46.88
41246;BME280;53880;47.526;18.986;2024-02-23T02:08:27;98313.41;;;19.77;47.02
41246;BME280;53880;47.526;18.986;2024-02-23T02:10:42;98305.41;;;19.77;47.04
41246;BME280;53880;47.526;18.986;2024-02-23T02:13:05;98308.06;;;19.77;47.05
41246;BME280;53880;47.526;18.986;2024-02-23T02:15:25;98307.88;;;19.78;46.91
41246;BME280;53880;47.526;18.986;2024-02-23T02:17:45;98303.53;;;19.77;47.02
41246;BME280;53880;47.526;18.986;2024-02-23T02:20:07;98313.41;;;19.77;46.95
41246;BME280;53880;47.526;18.986;2024-02-23T02:22:25;98300.22;;;19.75;47.02
41246;BME280;53880;47.526;18.986;2024-02-23T02:24:45;98303.09;;;19.74;47.00
41246;BME280;53880;47.526;18.986;2024-02-23T02:27:07;98313.78;;;19.74;47.10
41246;BME280;53880;47.526;18.986;2024-02-23T02:29:24;98301.25;;;19.74;46.97
41246;BME280;53880;47.526;18.986;2024-02-23T02:31:47;98302.47;;;19.72;47.15
41246;BME280;53880;47.526;18.986;2024-02-23T02:34:07;98304.13;;;19.73;47.04
41246;BME280;53880;47.526;18.986;2024-02-23T02:36:27;98303.31;;;19.72;46.92
41246;BME280;53880;47.526;18.986;2024-02-23T02:38:45;98303.69;;;19.69;46.82
41246;BME280;53880;47.526;18.986;2024-02-23T02:41:05;98301.84;;;19.70;47.06
41246;BME280;53880;47.526;18.986;2024-02-23T02:43:22;98303.88;;;19.68;47.04
41246;BME280;53880;47.526;18.986;2024-02-23T02:45:37;98309.84;;;19.70;47.00
41246;BME280;53880;47.526;18.986;2024-02-23T02:47:57;98312.09;;;19.66;47.18
41246;BME280;53880;47.526;18.986;2024-02-23T02:50:17;98310.63;;;19.64;47.19
41246;BME280;53880;47.526;18.986;2024-02-23T02:52:35;98311.47;;;19.64;47.21
41246;BME280;53880;47.526;18.986;2024-02-23T02:54:52;98313.47;;;19.62;47.23
41246;BME280;53880;47.526;18.986;2024-02-23T02:57:09;98315.53;;;19.60;47.23
41246;BME280;53880;47.526;18.986;2024-02-23T02:59:29;98318.19;;;19.60;47.26
41246;BME280;53880;47.526;18.986;2024-02-23T03:01:52;98312.06;;;19.60;47.23
41246;BME280;53880;47.526;18.986;2024-02-23T03:04:08;98312.06;;;19.60;47.29
41246;BME280;53880;47.526;18.986;2024-02-23T03:06:28;98318.41;;;19.59;47.41
41246;BME280;53880;47.526;18.986;2024-02-23T03:08:46;98317.38;;;19.60;47.47
41246;BME280;53880;47.526;18.986;2024-02-23T03:11:08;98319.22;;;19.59;47.26
41246;BME280;53880;47.526;18.986;2024-02-23T03:13:25;98311.59;;;19.56;47.17
41246;BME280;53880;47.526;18.986;2024-02-23T03:15:47;98317.13;;;19.55;47.50
41246;BME280;53880;47.526;18.986;2024-02-23T03:18:04;98316.31;;;19.54;47.44
41246;BME280;53880;47.526;18.986;2024-02-23T03:20:26;98330.50;;;19.55;47.50
41246;BME280;53880;47.526;18.986;2024-02-23T03:22:44;98321.63;;;19.54;47.48
41246;BME280;53880;47.526;18.986;2024-02-23T03:24:59;98318.81;;;19.56;47.51
41246;BME280;53880;47.526;18.986;2024-02-23T03:27:14;98326.97;;;19.54;47.35
41246;BME280;53880;47.526;18.986;2024-02-23T03:29:29;98331.50;;;19.54;47.37
41246;BME280;53880;47.526;18.986;2024-02-23T03:31:46;98324.50;;;19.53;47.51
41246;BME280;53880;47.526;18.986;2024-02-23T03:34:04;98327.19;;;19.53;47.50
41246;BME280;53880;47.526;18.986;2024-02-23T03:36:22;98325.53;;;19.52;47.39
41246;BME280;53880;47.526;18.986;2024-02-23T03:38:39;98321.84;;;19.53;47.56
41246;BME280;53880;47.526;18.986;2024-02-23T03:40:54;98328.41;;;19.50;47.54
41246;BME280;53880;47.526;18.986;2024-02-23T03:43:12;98317.91;;;19.49;47.50
41246;BME280;53880;47.526;18.986;2024-02-23T03:45:32;98322.63;;;19.47;47.50
41246;BME280;53880;47.526;18.986;2024-02-23T03:47:49;98326.75;;;19.49;47.56
41246;BME280;53880;47.526;18.986;2024-02-23T03:50:07;98323.41;;;19.47;47.54
41246;BME280;53880;47.526;18.986;2024-02-23T03:52:27;98333.09;;;19.48;47.54
41246;BME280;53880;47.526;18.986;2024-02-23T03:54:45;98324.47;;;19.46;47.54
41246;BME280;53880;47.526;18.986;2024-02-23T03:57:05;98326.75;;;19.49;47.50
41246;BME280;53880;47.526;18.986;2024-02-23T03:59:25;98329.44;;;19.49;47.53
41246;BME280;53880;47.526;18.986;2024-02-23T04:01:42;98326.94;;;19.48;47.36
41246;BME280;53880;47.526;18.986;2024-02-23T04:04:03;98328.97;;;19.46;47.53
41246;BME280;53880;47.526;18.986;2024-02-23T04:06:20;98326.09;;;19.47;47.61
41246;BME280;53880;47.526;18.986;2024-02-23T04:08:35;98332.84;;;19.43;47.60
41246;BME280;53880;47.526;18.986;2024-02-23T04:10:58;98334.50;;;19.44;47.59
41246;BME280;53880;47.526;18.986;2024-02-23T04:13:18;98339.22;;;19.42;47.60
41246;BME280;53880;47.526;18.986;2024-02-23T04:15:36;98333.47;;;19.45;47.65
41246;BME280;53880;47.526;18.986;2024-02-23T04:17:51;98332.66;;;19.45;47.59
41246;BME280;53880;47.526;18.986;2024-02-23T04:20:10;98335.34;;;19.45;47.80
41246;BME280;53880;47.526;18.986;2024-02-23T04:22:25;98345.38;;;19.43;47.71
41246;BME280;53880;47.526;18.986;2024-02-23T04:24:42;98353.41;;;19.43;47.68
41246;BME280;53880;47.526;18.986;2024-02-23T04:27:00;98350.91;;;19.41;48.10
41246;BME280;53880;47.526;18.986;2024-02-23T04:29:17;98329.53;;;19.41;47.78
41246;BME280;53880;47.526;18.986;2024-02-23T04:31:38;98339.41;;;19.41;47.74
41246;BME280;53880;47.526;18.986;2024-02-23T04:33:54;98351.94;;;19.40;47.92
41246;BME280;53880;47.526;18.986;2024-02-23T04:36:13;98343.09;;;19.40;47.96
41246;BME280;53880;47.526;18.986;2024-02-23T04:38:36;98346.75;;;19.39;47.71
41246;BME280;53880;47.526;18.986;2024-02-23T04:40:53;98347.59;;;19.39;47.82
41246;BME280;53880;47.526;18.986;2024-02-23T04:43:11;98349.44;;;19.39;48.01
41246;BME280;53880;47.526;18.986;2024-02-23T04:45:31;98338.94;;;19.37;47.89
41246;BME280;53880;47.526;18.986;2024-02-23T04:47:48;98341.81;;;19.36;47.85
41246;BME280;53880;47.526;18.986;2024-02-23T04:50:04;98346.34;;;19.35;48.09
41246;BME280;53880;47.526;18.986;2024-02-23T04:52:19;98347.38;;;19.34;48.09
41246;BME280;53880;47.526;18.986;2024-02-23T04:54:37;98356.00;;;19.36;47.88
41246;BME280;53880;47.526;18.986;2024-02-23T04:56:55;98354.13;;;19.37;48.14
41246;BME280;53880;47.526;18.986;2024-02-23T04:59:12;98337.13;;;19.38;47.96
41246;BME280;53880;47.526;18.986;2024-02-23T05:01:35;98350.47;;;19.38;48.13
41246;BME280;53880;47.526;18.986;2024-02-23T05:03:53;98356.66;;;19.38;48.06
41246;BME280;53880;47.526;18.986;2024-02-23T05:06:09;98354.97;;;19.37;48.14
41246;BME280;53880;47.526;18.986;2024-02-23T05:08:26;98357.66;;;19.37;48.13
41246;BME280;53880;47.526;18.986;2024-02-23T05:10:42;98357.84;;;19.36;47.87
41246;BME280;53880;47.526;18.986;2024-02-23T05:12:59;98369.34;;;19.36;47.90
41246;BME280;53880;47.526;18.986;2024-02-23T05:15:14;98365.66;;;19.37;47.93
41246;BME280;53880;47.526;18.986;2024-02-23T05:17:31;98369.91;;;19.32;48.05
41246;BME280;53880;47.526;18.986;2024-02-23T05:20:00;98374.19;;;19.33;47.85
41246;BME280;53880;47.526;18.986;2024-02-23T05:22:24;98383.03;;;19.33;47.91
41246;BME280;53880;47.526;18.986;2024-02-23T05:24:44;98383.25;;;19.32;48.01
41246;BME280;53880;47.526;18.986;2024-02-23T05:26:59;98386.91;;;19.31;48.10
41246;BME280;53880;47.526;18.986;2024-02-23T05:29:22;98386.91;;;19.31;48.05
41246;BME280;53880;47.526;18.986;2024-02-23T05:31:51;98385.09;;;19.31;48.08
41246;BME280;53880;47.526;18.986;2024-02-23T05:34:09;98396.88;;;19.37;47.66
41246;BME280;53880;47.526;18.986;2024-02-23T05:36:26;98392.81;;;19.41;47.41
41246;BME280;53880;47.526;18.986;2024-02-23T05:38:46;98396.78;;;19.45;47.57
41246;BME280;53880;47.526;18.986;2024-02-23T05:41:07;98402.19;;;19.51;47.60
41246;BME280;53880;47.526;18.986;2024-02-23T05:43:31;98403.88;;;19.59;47.56
41246;BME280;53880;47.526;18.986;2024-02-23T05:45:46;98404.78;;;19.66;47.38
41246;BME280;53880;47.526;18.986;2024-02-23T05:48:03;98409.34;;;19.72;47.32
41246;BME280;53880;47.526;18.986;2024-02-23T05:50:21;98421.78;;;19.80;47.43
41246;BME280;53880;47.526;18.986;2024-02-23T05:52:39;98422.00;;;19.85;47.25
41246;BME280;53880;47.526;18.986;2024-02-23T05:54:56;98435.41;;;19.91;47.21
41246;BME280;53880;47.526;18.986;2024-02-23T05:57:17;98432.81;;;19.98;47.08
41246;BME280;53880;47.526;18.986;2024-02-23T05:59:32;98432.03;;;20.04;47.03
41246;BME280;53880;47.526;18.986;2024-02-23T06:01:49;98438.47;;;20.09;46.68
41246;BME280;53880;47.526;18.986;2024-02-23T06:04:09;98445.91;;;20.14;46.91
41246;BME280;53880;47.526;18.986;2024-02-23T06:06:29;98441.81;;;20.18;46.88
41246;BME280;53880;47.526;18.986;2024-02-23T06:08:44;98445.59;;;20.23;46.69
41246;BME280;53880;47.526;18.986;2024-02-23T06:11:01;98449.53;;;20.27;46.79
41246;BME280;53880;47.526;18.986;2024-02-23T06:13:21;98449.16;;;20.30;46.62
41246;BME280;53880;47.526;18.986;2024-02-23T06:15:39;98446.91;;;20.34;46.71
41246;BME280;53880;47.526;18.986;2024-02-23T06:17:59;98450.03;;;20.37;46.74
41246;BME280;53880;47.526;18.986;2024-02-23T06:20:17;98451.28;;;20.41;46.61
41246;BME280;53880;47.526;18.986;2024-02-23T06:22:34;98453.56;;;20.44;46.71
41246;BME280;53880;47.526;18.986;2024-02-23T06:24:49;98460.19;;;20.48;46.43
41246;BME280;53880;47.526;18.986;2024-02-23T06:27:06;98465.97;;;20.52;46.61
41246;BME280;53880;47.526;18.986;2024-02-23T06:29:23;98477.31;;;20.54;46.55
41246;BME280;53880;47.526;18.986;2024-02-23T06:31:40;98473.00;;;20.60;46.63
41246;BME280;53880;47.526;18.986;2024-02-23T06:34:06;98472.63;;;20.63;46.56
41246;BME280;53880;47.526;18.986;2024-02-23T06:36:21;98472.03;;;20.67;46.31
41246;BME280;53880;47.526;18.986;2024-02-23T06:38:41;98471.66;;;20.70;46.22
41246;BME280;53880;47.526;18.986;2024-02-23T06:41:01;98476.81;;;20.72;46.55
41246;BME280;53880;47.526;18.986;2024-02-23T06:43:19;98473.72;;;20.75;46.18
41246;BME280;53880;47.526;18.986;2024-02-23T06:45:36;98474.34;;;20.77;46.50
41246;BME280;53880;47.526;18.986;2024-02-23T06:47:56;98470.66;;;20.78;46.37
41246;BME280;53880;47.526;18.986;2024-02-23T06:50:18;98471.09;;;20.81;46.32
41246;BME280;53880;47.526;18.986;2024-02-23T06:52:36;98477.91;;;20.84;46.38
41246;BME280;53880;47.526;18.986;2024-02-23T06:54:53;98475.06;;;20.85;46.35
41246;BME280;53880;47.526;18.986;2024-02-23T06:57:15;98474.44;;;20.90;46.23
41246;BME280;53880;47.526;18.986;2024-02-23T06:59:37;98477.75;;;20.92;46.24
41246;BME280;53880;47.526;18.986;2024-02-23T07:01:53;98474.69;;;20.95;46.15
41246;BME280;53880;47.526;18.986;2024-02-23T07:04:11;98481.69;;;20.96;46.14
41246;BME280;53880;47.526;18.986;2024-02-23T07:06:31;98477.97;;;20.97;46.22
41246;BME280;53880;47.526;18.986;2024-02-23T07:08:46;98484.16;;;20.97;46.29
41246;BME280;53880;47.526;18.986;2024-02-23T07:11:06;98487.47;;;20.99;46.26
41246;BME280;53880;47.526;18.986;2024-02-23T07:13:24;98487.47;;;20.99;46.40
41246;BME280;53880;47.526;18.986;2024-02-23T07:15:39;98489.31;;;20.99;46.41
41246;BME280;53880;47.526;18.986;2024-02-23T07:17:57;98493.03;;;20.98;46.58
41246;BME280;53880;47.526;18.986;2024-02-23T07:20:16;98498.56;;;20.96;46.37
41246;BME280;53880;47.526;18.986;2024-02-23T07:22:32;98506.81;;;20.95;46.48
41246;BME280;53880;47.526;18.986;2024-02-23T07:24:53;98508.03;;;20.92;46.53
41246;BME280;53880;47.526;18.986;2024-02-23T07:27:15;98506.56;;;20.90;46.65
41246;BME280;53880;47.526;18.986;2024-02-23T07:29:36;98498.09;;;20.86;46.80
41246;BME280;53880;47.526;18.986;2024-02-23T07:31:53;98503.66;;;20.85;46.81
41246;BME280;53880;47.526;18.986;2024-02-23T07:34:08;98501.38;;;20.82;46.94
41246;BME280;53880;47.526;18.986;2024-02-23T07:36:23;98498.91;;;20.80;46.80
41246;BME280;53880;47.526;18.986;2024-02-23T07:38:43;98500.31;;;20.76;46.83
41246;BME280;53880;47.526;18.986;2024-02-23T07:41:00;98503.16;;;20.75;46.89
41246;BME280;53880;47.526;18.986;2024-02-23T07:43:18;98508.94;;;20.72;46.81
41246;BME280;53880;47.526;18.986;2024-02-23T07:45:33;98513.81;;;20.68;46.89
41246;BME280;53880;47.526;18.986;2024-02-23T07:47:54;98521.84;;;20.68;46.75
41246;BME280;53880;47.526;18.986;2024-02-23T07:50:11;98508.69;;;20.67;46.82
41246;BME280;53880;47.526;18.986;2024-02-23T07:52:29;98523.28;;;20.64;46.85
41246;BME280;53880;47.526;18.986;2024-02-23T07:54:44;98524.94;;;20.65;46.75
41246;BME280;53880;47.526;18.986;2024-02-23T07:57:01;98518.16;;;20.69;46.52
41246;BME280;53880;47.526;18.986;2024-02-23T07:59:16;98523.16;;;20.72;46.61
41246;BME280;53880;47.526;18.986;2024-02-23T08:01:36;98525.41;;;20.75;46.38
41246;BME280;53880;47.526;18.986;2024-02-23T08:03:55;98529.34;;;20.79;46.27
41246;BME280;53880;47.526;18.986;2024-02-23T08:06:13;98533.28;;;20.83;46.42
41246;BME280;53880;47.526;18.986;2024-02-23T08:08:30;98519.31;;;20.88;46.46
41246;BME280;53880;47.526;18.986;2024-02-23T08:10:52;98521.41;;;20.92;46.23
41246;BME280;53880;47.526;18.986;2024-02-23T08:13:09;98522.66;;;20.96;46.21
41246;BME280;53880;47.526;18.986;2024-02-23T08:15:29;98531.16;;;21.00;46.13
41246;BME280;53880;47.526;18.986;2024-02-23T08:17:46;98536.94;;;21.03;46.14
41246;BME280;53880;47.526;18.986;2024-02-23T08:20:04;98535.53;;;21.07;46.22
41246;BME280;53880;47.526;18.986;2024-02-23T08:22:24;98525.44;;;21.09;46.12
41246;BME280;53880;47.526;18.986;2024-02-23T08:24:43;98537.25;;;21.15;46.34
41246;BME280;53880;47.526;18.986;2024-02-23T08:27:02;98537.66;;;21.18;46.21
41246;BME280;53880;47.526;18.986;2024-02-23T08:29:20;98538.28;;;21.20;46.05
41246;BME280;53880;47.526;18.986;2024-02-23T08:31:37;98543.44;;;21.22;46.05
41246;BME280;53880;47.526;18.986;2024-02-23T08:33:55;98545.31;;;21.21;46.10
41246;BME280;53880;47.526;18.986;2024-02-23T08:36:12;98540.97;;;21.20;46.30
41246;BME280;53880;47.526;18.986;2024-02-23T08:38:31;98532.94;;;21.20;46.09
41246;BME280;53880;47.526;18.986;2024-02-23T08:40:50;98543.63;;;21.20;46.23
41246;BME280;53880;47.526;18.986;2024-02-23T08:43:10;98545.47;;;21.20;46.07
41246;BME280;53880;47.526;18.986;2024-02-23T08:45:25;98550.03;;;21.19;46.34
41246;BME280;53880;47.526;18.986;2024-02-23T08:47:43;98551.25;;;21.17;46.52
41246;BME280;53880;47.526;18.986;2024-02-23T08:50:00;98563.38;;;21.13;46.42
41246;BME280;53880;47.526;18.986;2024-02-23T08:52:19;98558.63;;;21.08;46.59
41246;BME280;53880;47.526;18.986;2024-02-23T08:54:36;98562.50;;;21.06;46.54
41246;BME280;53880;47.526;18.986;2024-02-23T08:56:55;98561.69;;;21.05;46.52
41246;BME280;53880;47.526;18.986;2024-02-23T08:59:14;98565.56;;;21.03;46.73
41246;BME280;53880;47.526;18.986;2024-02-23T09:01:32;98567.78;;;20.99;46.90
41246;BME280;53880;47.526;18.986;2024-02-23T09:03:47;98567.53;;;20.94;46.76
41246;BME280;53880;47.526;18.986;2024-02-23T09:06:05;98566.91;;;20.92;46.73
41246;BME280;53880;47.526;18.986;2024-02-23T09:08:22;98572.47;;;20.91;46.78
41246;BME280;53880;47.526;18.986;2024-02-23T09:10:40;98570.00;;;20.89;46.96
41246;BME280;53880;47.526;18.986;2024-02-23T09:13:02;98563.38;;;20.85;46.97
41246;BME280;53880;47.526;18.986;2024-02-23T09:15:23;98576.31;;;20.82;46.91
41246;BME280;53880;47.526;18.986;2024-02-23T09:17:40;98573.84;;;20.80;47.19
41246;BME280;53880;47.526;18.986;2024-02-23T09:20:00;98577.16;;;20.82;46.95
41246;BME280;53880;47.526;18.986;2024-02-23T09:22:18;98583.09;;;20.78;47.01
41246;BME280;53880;47.526;18.986;2024-02-23T09:24:39;98581.63;;;20.75;47.03
41246;BME280;53880;47.526;18.986;2024-02-23T09:27:01;98580.78;;;20.75;47.10
41246;BME280;53880;47.526;18.986;2024-02-23T09:29:18;98571.13;;;20.74;47.20
41246;BME280;53880;47.526;18.986;2024-02-23T09:31:36;98573.22;;;20.78;47.24
41246;BME280;53880;47.526;18.986;2024-02-23T09:33:53;98574.03;;;20.79;46.72
41246;BME280;53880;47.526;18.986;2024-02-23T09:36:11;98571.38;;;20.79;46.82
41246;BME280;53880;47.526;18.986;2024-02-23T09:38:28;98571.94;;;20.74;46.94
41246;BME280;53880;47.526;18.986;2024-02-23T09:40:48;98576.84;;;20.71;46.97
41246;BME280;53880;47.526;18.986;2024-02-23T09:43:07;98582.66;;;20.74;47.05
41246;BME280;53880;47.526;18.986;2024-02-23T09:45:26;98577.53;;;20.79;46.73
41246;BME280;53880;47.526;18.986;2024-02-23T09:47:41;98586.66;;;20.85;46.80
41246;BME280;53880;47.526;18.986;2024-02-23T09:50:01;98571.63;;;20.90;46.57
41246;BME280;53880;47.526;18.986;2024-02-23T09:52:22;98578.88;;;20.96;46.48
41246;BME280;53880;47.526;18.986;2024-02-23T09:54:41;98577.13;;;21.03;46.43
41246;BME280;53880;47.526;18.986;2024-02-23T09:56:57;98580.03;;;21.08;46.28
41246;BME280;53880;47.526;18.986;2024-02-23T09:59:15;98577.41;;;21.15;46.25
41246;BME280;53880;47.526;18.986;2024-02-23T10:01:33;98578.88;;;21.17;46.28
41246;BME280;53880;47.526;18.986;2024-02-23T10:03:52;98591.47;;;21.23;46.35
41246;BME280;53880;47.526;18.986;2024-02-23T10:06:10;98578.50;;;21.27;46.34
41246;BME280;53880;47.526;18.986;2024-02-23T10:08:31;98584.47;;;21.29;46.23
41246;BME280;53880;47.526;18.986;2024-02-23T10:10:48;98581.63;;;21.31;46.23
41246;BME280;53880;47.526;18.986;2024-02-23T10:13:10;98588.00;;;21.30;46.48
41246;BME280;53880;47.526;18.986;2024-02-23T10:15:28;98585.31;;;21.30;46.44
41246;BME280;53880;47.526;18.986;2024-02-23T10:17:46;98583.47;;;21.30;46.28
41246;BME280;53880;47.526;18.986;2024-02-23T10:20:03;98586.16;;;21.30;46.22
41246;BME280;53880;47.526;18.986;2024-02-23T10:22:19;98585.53;;;21.28;46.24
41246;BME280;53880;47.526;18.986;2024-02-23T10:24:39;98601.59;;;21.28;46.39
41246;BME280;53880;47.526;18.986;2024-02-23T10:27:03;98598.28;;;21.26;46.19
41246;BME280;53880;47.526;18.986;2024-02-23T10:29:25;98592.88;;;21.19;46.70
41246;BME280;53880;47.526;18.986;2024-02-23T10:31:40;98600.03;;;21.12;46.68
41246;BME280;53880;47.526;18.986;2024-02-23T10:34:00;98599.00;;;21.13;46.66
41246;BME280;53880;47.526;18.986;2024-02-23T10:36:27;98598.19;;;21.13;46.82
41246;BME280;53880;47.526;18.986;2024-02-23T10:38:46;98603.72;;;21.11;46.73
41246;BME280;53880;47.526;18.986;2024-02-23T10:41:07;98603.72;;;21.11;46.80
41246;BME280;53880;47.526;18.986;2024-02-23T10:43:39;98607.03;;;21.13;46.49
41246;BME280;53880;47.526;18.986;2024-02-23T10:45:57;98596.13;;;21.08;46.75
41246;BME280;53880;47.526;18.986;2024-02-23T10:48:15;98600.84;;;21.06;46.94
41246;BME280;53880;47.526;18.986;2024-02-23T10:50:30;98602.22;;;21.02;46.73
41246;BME280;53880;47.526;18.986;2024-02-23T10:52:50;98604.28;;;21.00;46.98
41246;BME280;53880;47.526;18.986;2024-02-23T10:55:11;98599.28;;;20.97;46.75
41246;BME280;53880;47.526;18.986;2024-02-23T10:57:30;98596.81;;;20.96;46.96
41246;BME280;53880;47.526;18.986;2024-02-23T10:59:48;98606.91;;;20.94;47.00
41246;BME280;53880;47.526;18.986;2024-02-23T11:02:07;98599.66;;;20.94;46.85
41246;BME280;53880;47.526;18.986;2024-02-23T11:04:27;98597.41;;;20.91;46.97
41246;BME280;53880;47.526;18.986;2024-02-23T11:06:50;98599.25;;;20.91;46.97
41246;BME280;53880;47.526;18.986;2024-02-23T11:09:07;98608.28;;;20.90;46.71
41246;BME280;53880;47.526;18.986;2024-02-23T11:11:25;98598.41;;;20.90;46.80
41246;BME280;53880;47.526;18.986;2024-02-23T11:13:44;98597.56;;;20.90;46.67
41246;BME280;53880;47.526;18.986;2024-02-23T11:16:06;98603.13;;;20.88;46.92
41246;BME280;53880;47.526;18.986;2024-02-23T11:18:27;98605.22;;;20.93;47.11
41246;BME280;53880;47.526;18.986;2024-02-23T11:20:54;98599.03;;;20.92;46.75
41246;BME280;53880;47.526;18.986;2024-02-23T11:23:14;98600.88;;;20.92;46.73
41246;BME280;53880;47.526;18.986;2024-02-23T11:25:30;98599.44;;;20.89;46.80
41246;BME280;53880;47.526;18.986;2024-02-23T11:27:49;98598.03;;;20.93;46.92
41246;BME280;53880;47.526;18.986;2024-02-23T11:30:11;98601.53;;;20.94;46.90
41246;BME280;53880;47.526;18.986;2024-02-23T11:32:58;98602.94;;;20.90;47.12
41246;BME280;53880;47.526;18.986;2024-02-23T11:35:19;98591.22;;;20.91;47.06
41246;BME280;53880;47.526;18.986;2024-02-23T11:40:18;98593.69;;;20.92;46.85
41246;BME280;53880;47.526;18.986;2024-02-23T11:42:36;98597.44;;;20.98;46.96
41246;BME280;53880;47.526;18.986;2024-02-23T11:44:53;98587.81;;;21.03;46.75
41246;BME280;53880;47.526;18.986;2024-02-23T11:47:13;98587.66;;;21.11;46.64
41246;BME280;53880;47.526;18.986;2024-02-23T11:49:31;98582.97;;;21.20;46.62
41246;BME280;53880;47.526;18.986;2024-02-23T11:51:50;98574.81;;;21.28;46.54
41246;BME280;53880;47.526;18.986;2024-02-23T11:54:11;98573.19;;;21.34;46.69
41246;BME280;53880;47.526;18.986;2024-02-23T11:56:31;98572.38;;;21.40;46.53
41246;BME280;53880;47.526;18.986;2024-02-23T11:58:53;98570.16;;;21.43;46.50
41246;BME280;53880;47.526;18.986;2024-02-23T12:01:08;98567.25;;;21.45;46.48
41246;BME280;53880;47.526;18.986;2024-02-23T12:03:26;98571.63;;;21.46;46.79
41246;BME280;53880;47.526;18.986;2024-02-23T12:05:51;98573.44;;;21.45;46.89
41246;BME280;53880;47.526;18.986;2024-02-23T12:08:11;98579.00;;;21.44;46.94
41246;BME280;53880;47.526;18.986;2024-02-23T12:10:30;98567.47;;;21.43;47.16